Terminal Aerodrome Forecast
Issued by NWS

Home | Current Version | Previous Version | Graphics & Text | Print | Product List | Glossary On
Versions: 1 2 3 4 5 6 7 8 9 10 11 12 13 14
010
FTUS45 KGGW 290520
TAFSDY
TAF
KSDY 290520Z 2906/3006 19004KT P6SM BKN110
     FM291200 21008KT P6SM SCT050
     FM291500 23012KT P6SM SCT150
     FM300200 34009KT P6SM BKN070=

USA.gov is the U.S. government's official web portal to all federal, state and local government web resources and services.